Time;durP1;ratioP1;P1;durP2;ratioP2;P2;SDS_P1;SDS_P2;PMS_P1;PMS_P2;Temp;Humidity;BMP_temperature;BMP_pressure;BME280_temperature;BME280_humidity;BME280_pressure;Samples;Min_cycle;Max_cycle;Signal;HPM_P1;HPM_P2
2023/09/23 00:00:37;;;;;;;15.90;10.00;;;;;;;19.31;100.00;101029.98;105942;1260;61350;-86
2023/09/23 00:03:04;;;;;;;18.40;10.10;;;;;;;19.37;100.00;101032.14;105920;1259;61336;-87
2023/09/23 00:05:35;;;;;;;15.50;9.70;;;;;;;19.36;100.00;101030.44;105995;1257;73582;-86
2023/09/23 00:08:05;;;;;;;14.30;8.90;;;;;;;19.36;100.00;101029.88;106488;1260;67934;-83
2023/09/23 00:10:34;;;;;;;17.90;10.40;;;;;;;19.28;100.00;101035.71;106032;1260;72617;-83
2023/09/23 00:13:01;;;;;;;15.10;10.10;;;;;;;19.29;100.00;101037.56;106031;1260;61409;-85
2023/09/23 00:15:28;;;;;;;15.60;10.30;;;;;;;19.32;100.00;101030.96;105950;1260;61789;-85
2023/09/23 00:17:55;;;;;;;16.40;10.00;;;;;;;19.28;100.00;101037.27;106227;1262;74384;-85
2023/09/23 00:20:22;;;;;;;22.40;11.80;;;;;;;19.18;100.00;101037.98;106089;1261;67714;-83
2023/09/23 00:22:53;;;;;;;21.90;12.00;;;;;;;19.11;100.00;101037.52;106114;1259;71506;-86
2023/09/23 00:25:23;;;;;;;19.00;10.80;;;;;;;19.01;100.00;101036.77;106215;1258;61288;-84
2023/09/23 00:27:53;;;;;;;18.90;10.70;;;;;;;18.90;100.00;101036.80;106254;1258;61368;-86
2023/09/23 00:30:22;;;;;;;16.00;9.50;;;;;;;18.82;100.00;101033.33;106055;1260;73263;-83
2023/09/23 00:32:49;;;;;;;18.20;9.90;;;;;;;18.91;100.00;101030.94;106196;1262;67371;-83
2023/09/23 00:35:18;;;;;;;17.20;10.10;;;;;;;18.97;100.00;101030.64;106113;1262;72013;-84
2023/09/23 00:37:48;;;;;;;15.70;9.30;;;;;;;18.93;100.00;101030.85;106057;1258;61265;-86
2023/09/23 00:40:24;;;;;;;18.40;9.60;;;;;;;18.89;100.00;101031.52;106108;1261;61177;-86
2023/09/23 00:42:51;;;;;;;14.80;9.00;;;;;;;18.79;100.00;101031.14;106020;1262;73270;-86
2023/09/23 00:45:22;;;;;;;17.10;9.90;;;;;;;18.73;100.00;101033.08;105875;1257;67764;-83
2023/09/23 00:47:49;;;;;;;17.10;10.40;;;;;;;18.68;100.00;101037.51;106666;1260;72436;-85
2023/09/23 00:50:19;;;;;;;16.40;10.20;;;;;;;18.62;100.00;101036.02;106028;1260;61721;-86
2023/09/23 00:52:53;;;;;;;17.70;9.60;;;;;;;18.59;100.00;101032.66;106024;1261;61237;-86
2023/09/23 00:55:20;;;;;;;16.00;10.10;;;;;;;18.60;100.00;101038.38;105908;1257;73772;-86
2023/09/23 00:57:48;;;;;;;17.00;9.50;;;;;;;18.65;100.00;101036.81;106128;1261;67386;-84
2023/09/23 01:00:24;;;;;;;17.60;10.40;;;;;;;18.67;100.00;101036.36;106011;1257;73095;-83
2023/09/23 01:02:51;;;;;;;17.70;10.60;;;;;;;18.61;100.00;101038.91;106038;1258;62486;-86
2023/09/23 01:05:19;;;;;;;16.10;9.70;;;;;;;18.60;100.00;101044.38;106901;1262;61098;-85
2023/09/23 01:07:47;;;;;;;17.10;10.00;;;;;;;18.55;100.00;101048.10;106074;1258;74589;-86
2023/09/23 01:10:17;;;;;;;15.80;10.00;;;;;;;18.60;100.00;101050.23;106128;1259;68693;-86
2023/09/23 01:12:47;;;;;;;16.10;9.10;;;;;;;18.57;100.00;101046.99;106016;1259;72360;-85
2023/09/23 01:15:17;;;;;;;15.20;9.90;;;;;;;18.55;100.00;101051.72;105945;1257;62270;-83
2023/09/23 01:17:53;;;;;;;16.90;10.40;;;;;;;18.46;100.00;101050.34;106125;1257;61337;-84
2023/09/23 01:20:21;;;;;;;16.40;10.00;;;;;;;18.48;100.00;101052.56;105845;1260;73504;-83
2023/09/23 01:22:48;;;;;;;17.00;10.50;;;;;;;18.52;100.00;101047.15;107101;1257;68478;-84
2023/09/23 01:25:19;;;;;;;17.00;9.80;;;;;;;18.55;100.00;101042.20;106172;1262;72455;-85
2023/09/23 01:27:47;;;;;;;15.90;9.80;;;;;;;18.52;100.00;101048.26;105924;1263;61279;-86
2023/09/23 01:30:14;;;;;;;16.00;9.20;;;;;;;18.53;100.00;101043.31;106172;1256;61320;-86
2023/09/23 01:32:41;;;;;;;14.80;8.60;;;;;;;18.55;100.00;101045.63;106221;1257;74869;-85
2023/09/23 01:35:09;;;;;;;15.00;8.80;;;;;;;18.56;100.00;101046.08;106035;1259;68520;-86
2023/09/23 01:37:36;;;;;;;13.10;9.00;;;;;;;18.63;100.00;101047.45;106104;1260;72667;-83
2023/09/23 01:40:05;;;;;;;14.70;9.50;;;;;;;18.64;100.00;101051.07;106627;1258;61244;-84
2023/09/23 01:42:33;;;;;;;14.90;9.50;;;;;;;18.59;100.00;101055.56;106166;1258;61718;-83
2023/09/23 01:45:03;;;;;;;14.90;9.40;;;;;;;18.55;100.00;101058.91;106467;1262;75151;-86
2023/09/23 01:47:31;;;;;;;12.30;8.60;;;;;;;18.47;100.00;101061.66;106190;1258;69155;-84
2023/09/23 01:50:00;;;;;;;14.00;9.10;;;;;;;18.45;100.00;101059.65;106024;1258;70539;-84
2023/09/23 01:52:29;;;;;;;17.00;9.70;;;;;;;18.39;100.00;101062.04;106029;1257;61334;-86
2023/09/23 01:54:56;;;;;;;16.00;9.70;;;;;;;18.32;100.00;101059.35;105868;1257;61291;-86
2023/09/23 01:57:22;;;;;;;14.90;9.00;;;;;;;18.31;100.00;101061.76;105930;1262;72768;-84
2023/09/23 01:59:49;;;;;;;16.40;8.40;;;;;;;18.33;100.00;101066.05;105951;1260;67548;-86
2023/09/23 02:02:17;;;;;;;14.00;8.80;;;;;;;18.41;100.00;101070.90;106139;1257;71189;-84
2023/09/23 02:04:45;;;;;;;14.40;9.50;;;;;;;18.41;100.00;101067.08;106702;1257;61240;-84
2023/09/23 02:07:13;;;;;;;17.00;10.60;;;;;;;18.37;100.00;101073.70;105929;1264;61175;-86
2023/09/23 02:09:40;;;;;;;17.20;9.00;;;;;;;18.31;100.00;101078.51;105967;1258;74899;-83
2023/09/23 02:12:07;;;;;;;16.90;9.40;;;;;;;18.31;100.00;101081.64;106050;1260;67224;-86
2023/09/23 02:14:34;;;;;;;16.60;9.30;;;;;;;18.19;100.00;101082.23;105883;1262;72488;-84
2023/09/23 02:17:01;;;;;;;16.10;9.90;;;;;;;18.14;100.00;101085.21;106039;1261;61181;-86
2023/09/23 02:19:28;;;;;;;15.40;10.00;;;;;;;18.14;100.00;101082.89;105921;1259;61349;-83
2023/09/23 02:21:55;;;;;;;15.80;9.10;;;;;;;18.19;100.00;101084.46;106042;1258;74353;-85
2023/09/23 02:24:22;;;;;;;17.50;9.60;;;;;;;18.19;100.00;101082.40;106156;1258;68536;-85
2023/09/23 02:26:49;;;;;;;14.20;10.20;;;;;;;18.19;100.00;101082.25;107094;1262;71265;-83
2023/09/23 02:29:16;;;;;;;14.10;10.10;;;;;;;18.19;100.00;101083.31;105962;1258;62052;-84
2023/09/23 02:31:48;;;;;;;15.10;10.00;;;;;;;18.24;100.00;101082.80;105934;1263;61360;-84
2023/09/23 02:34:16;;;;;;;18.60;9.40;;;;;;;18.24;100.00;101082.17;106190;1262;74647;-86
2023/09/23 02:36:45;;;;;;;14.00;9.30;;;;;;;18.24;100.00;101084.68;106161;1262;67623;-85
2023/09/23 02:39:20;;;;;;;15.30;9.50;;;;;;;18.11;100.00;101085.27;106095;1262;72401;-86
2023/09/23 02:41:48;;;;;;;14.10;9.20;;;;;;;17.95;100.00;101083.99;105966;1262;61733;-84
2023/09/23 02:44:22;;;;;;;16.90;10.30;;;;;;;17.81;100.00;101076.70;105979;1260;61184;-84
2023/09/23 02:46:53;;;;;;;17.40;9.90;;;;;;;17.79;100.00;101074.32;105972;1262;74368;-84
2023/09/23 02:49:20;;;;;;;16.90;9.40;;;;;;;17.72;100.00;101074.80;106635;1261;68607;-86
2023/09/23 02:51:49;;;;;;;14.50;8.80;;;;;;;17.76;100.00;101074.20;105818;1264;72467;-84
2023/09/23 02:54:17;;;;;;;15.10;9.60;;;;;;;17.77;100.00;101078.44;106070;1262;61831;-83
2023/09/23 02:56:46;;;;;;;11.80;8.80;;;;;;;17.83;100.00;101077.27;106095;1263;61951;-83
2023/09/23 02:59:15;;;;;;;16.20;9.50;;;;;;;17.79;100.00;101075.70;105896;1264;74655;-83
2023/09/23 03:01:45;;;;;;;16.40;9.60;;;;;;;17.72;100.00;101074.70;106212;1263;67597;-86
2023/09/23 03:04:23;;;;;;;14.80;9.00;;;;;;;17.65;100.00;101077.34;106057;1263;71173;-85
2023/09/23 03:06:59;;;;;;;13.50;9.40;;;;;;;17.61;100.00;101077.02;106499;1263;61102;-85
2023/09/23 03:09:32;;;;;;;14.40;9.40;;;;;;;17.64;100.00;101074.32;106109;1262;61256;-85
2023/09/23 03:12:00;;;;;;;;;;;;;;;17.66;100.00;101076.21;106107;1262;74557;-85
2023/09/23 03:14:42;;;;;;;15.10;8.40;;;;;;;17.56;100.00;101078.64;106253;1262;68497;-85
2023/09/23 03:17:13;;;;;;;14.10;8.60;;;;;;;17.41;100.00;101081.23;105826;1258;72657;-85
2023/09/23 03:19:40;;;;;;;14.50;8.80;;;;;;;17.32;100.00;101083.27;105887;1258;61930;-83
2023/09/23 03:22:07;;;;;;;13.90;9.60;;;;;;;17.19;100.00;101089.29;106077;1262;61222;-83
2023/09/23 03:24:34;;;;;;;16.80;9.60;;;;;;;17.19;100.00;101088.91;106566;1258;73009;-85
2023/09/23 03:27:02;;;;;;;14.70;9.80;;;;;;;17.12;100.00;101091.48;105881;1262;67566;-83
2023/09/23 03:29:30;;;;;;;16.30;9.30;;;;;;;17.09;100.00;101096.02;106009;1263;73303;-85
2023/09/23 03:31:58;;;;;;;14.40;10.00;;;;;;;17.24;100.00;101092.32;106134;1262;61355;-82
2023/09/23 03:34:26;;;;;;;20.10;11.90;;;;;;;17.29;100.00;101093.88;105884;1262;61347;-84
2023/09/23 03:36:53;;;;;;;23.20;14.90;;;;;;;17.24;100.00;101095.77;106046;1263;74894;-84
2023/09/23 03:39:20;;;;;;;25.00;15.30;;;;;;;17.31;100.00;101093.56;106007;1262;68773;-85
2023/09/23 03:41:47;;;;;;;22.80;11.10;;;;;;;17.37;100.00;101099.69;105958;1256;72507;-84
2023/09/23 03:44:14;;;;;;;17.30;10.10;;;;;;;17.39;100.00;101105.23;106661;1257;61330;-83
2023/09/23 03:46:45;;;;;;;14.80;9.80;;;;;;;17.41;100.00;101106.44;106115;1260;61330;-84
2023/09/23 03:49:13;;;;;;;15.50;9.70;;;;;;;17.45;100.00;101108.17;105978;1261;74750;-85
2023/09/23 03:51:39;;;;;;;16.50;10.50;;;;;;;17.49;100.00;101106.66;106071;1262;68730;-85
2023/09/23 03:54:06;;;;;;;17.20;9.20;;;;;;;17.50;100.00;101110.11;105969;1260;71163;-85
2023/09/23 03:56:34;;;;;;;16.90;9.90;;;;;;;17.42;100.00;101113.38;106033;1271;61262;-85
2023/09/23 03:59:06;;;;;;;20.10;10.20;;;;;;;17.41;100.00;101116.77;106016;1262;61359;-85
2023/09/23 04:01:36;;;;;;;18.60;9.70;;;;;;;17.41;100.00;101117.32;106287;1264;74702;-85
2023/09/23 04:04:04;;;;;;;15.40;9.10;;;;;;;17.42;100.00;101113.59;106145;1257;68416;-84
2023/09/23 04:06:33;;;;;;;15.70;9.30;;;;;;;17.46;100.00;101115.95;106103;1257;72357;-84
2023/09/23 04:09:00;;;;;;;15.90;9.80;;;;;;;17.47;100.00;101116.75;106027;1258;62017;-84
2023/09/23 04:11:27;;;;;;;16.00;8.70;;;;;;;17.49;100.00;101118.81;106067;1257;61174;-85
2023/09/23 04:13:54;;;;;;;16.60;9.40;;;;;;;17.53;100.00;101117.79;105956;1258;75157;-83
2023/09/23 04:16:21;;;;;;;14.80;9.30;;;;;;;17.61;100.00;101117.50;105990;1257;68599;-85
2023/09/23 04:18:51;;;;;;;14.50;9.60;;;;;;;17.71;100.00;101116.00;106316;1257;72470;-84
2023/09/23 04:21:20;;;;;;;15.50;9.70;;;;;;;17.84;100.00;101115.35;105843;1258;269774;-86
2023/09/23 04:23:50;;;;;;;13.40;9.20;;;;;;;17.94;100.00;101116.23;106034;1262;61237;-86
2023/09/23 04:26:21;;;;;;;14.30;9.00;;;;;;;18.05;100.00;101108.98;105949;1257;73407;-85
2023/09/23 04:28:52;;;;;;;15.80;10.10;;;;;;;18.11;100.00;101109.30;106076;1263;68718;-85
2023/09/23 04:31:19;;;;;;;17.50;10.00;;;;;;;18.21;100.00;101110.86;106717;1257;70722;-84
2023/09/23 04:33:47;;;;;;;13.60;9.30;;;;;;;18.27;100.00;101111.32;106726;1263;61363;-85
2023/09/23 04:36:14;;;;;;;16.00;10.00;;;;;;;18.26;100.00;101113.73;106013;1262;61272;-85
2023/09/23 04:38:43;;;;;;;17.00;10.00;;;;;;;18.37;100.00;101112.08;106133;1263;74917;-84
2023/09/23 04:41:10;;;;;;;16.20;9.70;;;;;;;18.54;100.00;101105.38;106096;1262;67115;-84
2023/09/23 04:43:41;;;;;;;16.60;9.60;;;;;;;18.69;100.00;101101.64;106055;1263;72758;-85
2023/09/23 04:46:09;;;;;;;17.60;9.50;;;;;;;18.73;100.00;101104.14;106064;1258;61152;-86
2023/09/23 04:48:36;;;;;;;19.20;11.10;;;;;;;19.02;100.00;101102.88;107420;1257;60386;-84
2023/09/23 10:08:35;;;;;;;10.00;6.40;;;;;;;31.90;46.71;101142.52;105942;1257;65848;-86
2023/09/23 10:11:06;;;;;;;12.40;6.60;;;;;;;31.93;46.10;101145.42;105885;1261;61175;-88
2023/09/23 10:13:33;;;;;;;12.10;6.80;;;;;;;31.85;47.21;101147.06;106095;1256;62898;-88
2023/09/23 10:16:19;;;;;;;33.00;7.10;;;;;;;31.98;47.23;101149.06;106720;1256;61212;-88
2023/09/23 10:18:56;;;;;;;13.50;6.30;;;;;;;32.10;46.01;101150.14;105982;1256;61283;-86
2023/09/23 10:21:24;;;;;;;11.30;6.30;;;;;;;32.18;45.55;101146.38;106044;1260;65771;-85
2023/09/23 10:23:52;;;;;;;15.50;6.90;;;;;;;32.22;44.52;101145.64;106136;1256;61174;-85
2023/09/23 10:26:19;;;;;;;14.70;7.00;;;;;;;32.19;44.24;101148.23;106049;1257;63911;-85
2023/09/23 10:29:00;;;;;;;13.80;6.90;;;;;;;32.23;43.97;101150.73;106524;1256;61844;-84
2023/09/23 10:31:29;;;;;;;12.30;6.50;;;;;;;32.35;43.45;101148.64;105919;1257;61259;-85
2023/09/23 10:33:56;;;;;;;16.60;6.80;;;;;;;32.40;43.37;101151.52;105919;1257;66727;-85
2023/09/23 10:36:23;;;;;;;11.10;6.20;;;;;;;32.38;43.20;101148.05;105956;1262;61202;-85
2023/09/23 10:38:50;;;;;;;11.40;6.70;;;;;;;32.31;42.92;101147.77;105847;1263;65060;-85
2023/09/23 10:41:18;;;;;;;11.70;6.50;;;;;;;32.25;43.49;101150.14;106055;1257;61274;-86
2023/09/23 10:43:53;;;;;;;13.70;6.80;;;;;;;32.00;43.89;101152.84;105943;1256;61312;-84
2023/09/23 10:46:20;;;;;;;12.30;6.20;;;;;;;31.92;44.55;101148.90;106001;1258;65847;-85
2023/09/23 10:48:47;;;;;;;9.60;6.30;;;;;;;31.90;45.32;101146.40;106156;1256;61624;-83
2023/09/23 10:51:15;;;;;;;12.80;6.90;;;;;;;31.94;45.36;101143.41;106157;1256;64057;-85
2023/09/23 10:53:43;;;;;;;13.40;6.30;;;;;;;31.96;45.42;101145.27;106204;1259;61227;-86
2023/09/23 10:56:10;;;;;;;14.60;7.20;;;;;;;31.96;45.04;101141.48;106126;1256;61432;-85
2023/09/23 10:58:38;;;;;;;10.40;6.10;;;;;;;31.94;45.27;101132.60;106126;1258;64574;-84
2023/09/23 11:01:06;;;;;;;12.10;7.00;;;;;;;31.97;45.64;101129.52;105971;1257;61439;-85
2023/09/23 11:03:40;;;;;;;10.70;6.20;;;;;;;32.04;45.28;101120.04;106021;1258;63856;-85
2023/09/23 11:06:08;;;;;;;15.80;6.70;;;;;;;32.10;44.82;101124.77;106317;1258;61360;-83
2023/09/23 11:08:36;;;;;;;11.00;6.30;;;;;;;32.09;45.01;101118.55;105911;1257;62857;-84
2023/09/23 11:11:04;;;;;;;14.30;6.60;;;;;;;32.16;45.05;101121.20;106005;1262;66953;-84
2023/09/23 11:13:32;;;;;;;11.90;6.30;;;;;;;32.19;44.57;101123.52;106058;1257;68999;-84
2023/09/23 11:15:59;;;;;;;13.80;6.30;;;;;;;32.26;44.94;101126.23;106057;1258;63727;-83
2023/09/23 11:18:28;;;;;;;14.70;6.00;;;;;;;32.39;44.39;101130.19;106142;1257;61974;-84
2023/09/23 11:20:55;;;;;;;14.90;6.10;;;;;;;32.48;43.51;101127.48;106150;1257;61143;-84
2023/09/23 11:23:25;;;;;;;9.60;5.70;;;;;;;32.58;43.00;101128.41;106148;1257;65870;-84
2023/09/23 11:25:52;;;;;;;9.50;5.40;;;;;;;32.53;43.05;101128.91;106017;1260;61171;-84
2023/09/23 11:28:24;;;;;;;9.90;5.50;;;;;;;32.60;43.12;101127.16;106018;1257;64933;-85
2023/09/23 11:30:53;;;;;;;9.40;5.50;;;;;;;32.63;43.02;101130.70;105907;1256;61185;-85
2023/09/23 11:33:24;;;;;;;11.90;5.00;;;;;;;32.62;42.81;101131.02;106652;1256;61260;-86
2023/09/23 11:35:51;;;;;;;8.80;6.00;;;;;;;32.56;42.65;101124.62;105988;1256;67018;-86
2023/09/23 11:38:20;;;;;;;9.20;5.30;;;;;;;32.51;42.75;101117.05;105904;1261;61369;-85
2023/09/23 11:40:47;;;;;;;14.50;5.70;;;;;;;32.48;43.14;101115.52;105974;1257;65009;-85
2023/09/23 11:43:15;;;;;;;13.00;5.60;;;;;;;32.46;43.00;101113.09;105984;1262;61299;-85
2023/09/23 11:45:43;;;;;;;10.50;5.70;;;;;;;32.40;43.42;101109.66;106075;1261;61221;-85
2023/09/23 11:48:10;;;;;;;9.10;5.00;;;;;;;32.36;43.23;101110.50;105931;1259;65876;-85
2023/09/23 11:50:37;;;;;;;10.70;5.10;;;;;;;32.39;42.93;101106.27;106416;1257;61279;-85
2023/09/23 11:53:05;;;;;;;7.40;4.90;;;;;;;32.40;42.57;101108.54;105970;1258;62649;-84
2023/09/23 11:55:32;;;;;;;10.20;5.60;;;;;;;32.33;42.67;101112.68;105936;1257;61248;-85
2023/09/23 11:58:00;;;;;;;11.10;5.00;;;;;;;32.30;42.94;101111.99;105989;1257;61261;-84
2023/09/23 12:00:28;;;;;;;9.70;5.20;;;;;;;32.31;42.91;101108.98;106388;1257;64781;-84
2023/09/23 12:02:55;;;;;;;10.80;5.40;;;;;;;32.26;42.58;101104.18;106691;1257;61266;-85
2023/09/23 12:05:28;;;;;;;9.50;5.50;;;;;;;32.30;42.47;101103.58;105809;1257;63823;-86
2023/09/23 12:07:59;;;;;;;12.40;5.30;;;;;;;32.27;42.79;101102.30;106029;1262;61225;-84
2023/09/23 12:10:29;;;;;;;9.30;5.20;;;;;;;32.22;43.04;101102.59;106112;1258;61306;-85
2023/09/23 12:13:02;;;;;;;10.00;5.40;;;;;;;32.16;42.95;101100.67;106042;1257;66359;-85
2023/09/23 12:15:30;;;;;;;8.50;5.40;;;;;;;32.18;42.55;101101.23;106025;1257;61365;-84
2023/09/23 12:17:57;;;;;;;10.10;4.60;;;;;;;32.14;42.27;101103.34;105865;1257;64027;-85
2023/09/23 12:20:25;;;;;;;7.50;4.70;;;;;;;32.15;41.99;101101.00;105957;1257;61206;-85
2023/09/23 12:22:57;;;;;;;6.50;5.00;;;;;;;32.24;41.72;101099.74;105844;1259;61494;-85
2023/09/23 12:25:24;;;;;;;8.80;4.80;;;;;;;32.32;41.47;101100.73;105978;1257;65845;-83
2023/09/23 12:27:51;;;;;;;9.40;4.80;;;;;;;32.38;41.29;101099.73;106003;1258;61328;-84
2023/09/23 12:30:18;;;;;;;11.40;4.80;;;;;;;32.42;41.26;101100.27;105939;1258;62733;-85
2023/09/23 12:32:45;;;;;;;9.10;4.70;;;;;;;32.48;41.20;101100.00;105931;1258;61277;-86
2023/09/23 12:35:13;;;;;;;9.30;4.80;;;;;;;32.52;40.80;101099.11;106004;1257;61227;-86
2023/09/23 12:37:40;;;;;;;10.40;5.00;;;;;;;32.58;40.83;101096.46;105877;1257;66045;-85
2023/09/23 12:40:09;;;;;;;14.40;6.90;;;;;;;32.62;40.76;101093.45;106506;1258;61269;-87
2023/09/23 12:42:36;;;;;;;11.10;6.50;;;;;;;32.69;40.47;101088.55;105975;1257;64014;-85
2023/09/23 12:45:05;;;;;;;9.30;4.60;;;;;;;32.72;40.16;101087.08;105808;1257;61353;-84
2023/09/23 12:47:33;;;;;;;6.30;4.50;;;;;;;32.74;40.01;101088.66;105966;1261;61279;-84
2023/09/23 12:50:19;;;;;;;13.40;4.60;;;;;;;32.76;40.35;101089.14;105897;1262;65863;-85
2023/09/23 12:52:46;;;;;;;8.50;4.60;;;;;;;32.78;40.35;101086.60;106482;1262;61158;-84
2023/09/23 12:55:13;;;;;;;9.40;4.30;;;;;;;32.77;40.55;101090.17;105878;1259;64215;-85
2023/09/23 12:57:41;;;;;;;10.00;4.30;;;;;;;32.75;40.59;101091.58;105902;1258;61357;-85
2023/09/23 13:00:08;;;;;;;10.20;4.70;;;;;;;32.64;41.03;101086.33;105845;1262;61247;-85
2023/09/23 13:02:35;;;;;;;7.90;4.90;;;;;;;32.43;41.37;101085.42;106176;1262;66060;-85
2023/09/23 13:05:08;;;;;;;8.70;4.70;;;;;;;32.29;41.88;101084.77;105921;1257;61368;-84
2023/09/23 13:07:35;;;;;;;;;;;;;;;32.24;42.27;101081.80;106645;1257;63921;-86
2023/09/23 13:10:03;;;;;;;8.70;4.50;;;;;;;32.22;42.30;101079.24;105879;1260;61394;-86
2023/09/23 13:12:31;;;;;;;11.40;4.30;;;;;;;32.17;42.46;101081.61;105937;1262;61223;-84
2023/09/23 13:14:58;;;;;;;11.80;4.70;;;;;;;32.16;42.46;101073.63;106017;1259;64683;-85
2023/09/23 13:17:25;;;;;;;10.90;4.80;;;;;;;32.20;42.80;101074.00;106004;1260;61257;-85
2023/09/23 13:19:52;;;;;;;8.90;4.50;;;;;;;32.20;42.84;101074.81;106323;1260;64565;-85
2023/09/23 13:22:20;;;;;;;12.20;5.00;;;;;;;32.26;42.44;101075.66;105960;1260;61345;-85
2023/09/23 13:24:49;;;;;;;10.10;4.60;;;;;;;32.26;42.45;101071.14;106012;1257;61273;-85
2023/09/23 13:27:16;;;;;;;9.80;4.80;;;;;;;32.24;42.71;101072.67;106158;1256;64745;-85
2023/09/23 13:29:43;;;;;;;8.20;4.60;;;;;;;32.27;43.05;101073.63;106147;1256;61111;-84
2023/09/23 13:32:10;;;;;;;9.60;4.30;;;;;;;32.34;42.88;101065.34;106242;1256;64008;-85
2023/09/23 13:34:37;;;;;;;5.60;4.40;;;;;;;32.42;42.85;101065.77;105999;1256;61308;-84
2023/09/23 13:37:04;;;;;;;9.30;4.40;;;;;;;32.44;42.91;101060.74;105998;1259;61173;-85
2023/09/23 13:39:31;;;;;;;7.50;4.60;;;;;;;32.41;43.23;101060.45;105881;1258;65870;-85
2023/09/23 13:41:58;;;;;;;9.10;4.70;;;;;;;32.36;43.34;101058.39;105972;1257;61576;-85
2023/09/23 13:44:25;;;;;;;9.40;4.60;;;;;;;32.35;43.37;101055.80;106121;1259;63893;-85
2023/09/23 13:46:52;;;;;;;8.60;4.40;;;;;;;32.37;43.60;101058.70;105824;1257;61376;-84
2023/09/23 13:49:20;;;;;;;10.70;4.30;;;;;;;32.39;43.72;101057.48;106004;1257;61352;-84
2023/09/23 13:51:47;;;;;;;9.70;4.80;;;;;;;32.31;43.96;101055.27;106071;1262;65815;-85
2023/09/23 13:54:14;;;;;;;9.00;4.50;;;;;;;32.37;44.01;101050.86;105958;1257;61360;-85
2023/09/23 13:56:41;;;;;;;10.00;4.80;;;;;;;32.36;44.23;101044.33;106205;1258;64118;-85
2023/09/23 13:59:08;;;;;;;8.40;4.80;;;;;;;32.34;44.07;101040.46;105923;1258;61849;-86
2023/09/23 14:01:35;;;;;;;12.70;4.70;;;;;;;32.27;43.88;101036.06;105990;1258;61323;-85
2023/09/23 14:04:03;;;;;;;13.60;5.40;;;;;;;32.22;44.04;101030.20;105995;1257;65889;-85
2023/09/23 14:06:30;;;;;;;9.40;5.20;;;;;;;32.22;44.14;101028.12;105860;1259;61221;-85
2023/09/23 14:08:57;;;;;;;11.90;5.40;;;;;;;32.25;44.21;101030.52;106191;1257;63987;-85
2023/09/23 14:11:24;;;;;;;8.40;5.20;;;;;;;32.23;44.28;101030.61;105977;1257;61282;-85
2023/09/23 14:13:51;;;;;;;9.40;4.40;;;;;;;32.23;44.36;101033.44;105968;1257;61231;-86
2023/09/23 14:16:18;;;;;;;13.50;5.00;;;;;;;32.21;44.44;101034.84;105846;1260;66000;-86
2023/09/23 14:18:45;;;;;;;10.70;5.20;;;;;;;32.18;44.44;101033.95;105849;1257;61294;-85
2023/09/23 14:21:13;;;;;;;8.40;4.70;;;;;;;32.16;44.87;101031.39;106016;1257;63854;-85
2023/09/23 14:23:40;;;;;;;8.90;4.90;;;;;;;32.15;45.07;101032.27;106339;1262;61236;-85
2023/09/23 14:26:07;;;;;;;9.70;4.90;;;;;;;32.18;45.27;101032.09;106521;1257;61146;-85
2023/09/23 14:28:34;;;;;;;13.00;5.10;;;;;;;32.19;45.33;101032.09;106001;1257;66052;-85
2023/09/23 14:31:02;;;;;;;9.90;5.10;;;;;;;32.12;45.66;101032.54;105902;1258;61116;-86
2023/09/23 14:33:30;;;;;;;9.30;6.00;;;;;;;32.03;46.49;101031.46;106019;1259;63866;-86
2023/09/23 14:35:58;;;;;;;11.40;5.20;;;;;;;31.92;47.39;101031.68;106167;1261;61258;-86
2023/09/23 14:38:26;;;;;;;10.60;5.40;;;;;;;31.93;47.70;101028.84;105980;1262;61349;-86
2023/09/23 14:40:53;;;;;;;12.80;5.50;;;;;;;31.86;48.11;101025.31;105935;1258;65725;-86
2023/09/23 14:43:20;;;;;;;11.60;5.80;;;;;;;31.80;48.59;101023.66;105942;1256;61426;-85
2023/09/23 14:45:47;;;;;;;9.70;4.70;;;;;;;31.73;48.90;101023.38;106193;1257;63765;-86
2023/09/23 14:48:14;;;;;;;10.00;5.30;;;;;;;31.62;49.24;101024.88;106436;1259;61110;-84
2023/09/23 14:50:41;;;;;;;13.80;5.20;;;;;;;31.61;49.33;101022.45;106716;1257;60903;-86
2023/09/23 14:53:08;;;;;;;9.30;5.90;;;;;;;31.60;49.34;101024.96;105962;1262;65902;-85
2023/09/23 14:55:35;;;;;;;9.30;5.60;;;;;;;31.60;49.27;101025.45;105884;1257;61347;-85
2023/09/23 14:58:03;;;;;;;13.30;5.50;;;;;;;31.46;49.78;101024.85;106076;1257;62562;-85
2023/09/23 15:00:30;;;;;;;7.50;4.70;;;;;;;31.37;50.04;101023.64;105952;1262;61363;-86
2023/09/23 15:02:58;;;;;;;14.70;5.60;;;;;;;31.34;50.21;101019.23;107019;1256;61257;-86
2023/09/23 15:05:25;;;;;;;11.00;5.40;;;;;;;31.25;50.55;101017.56;105902;1258;65895;-86
2023/09/23 15:07:52;;;;;;;9.10;5.00;;;;;;;31.20;50.80;101020.15;106182;1259;61277;-86
2023/09/23 15:10:19;;;;;;;8.60;5.10;;;;;;;31.15;51.16;101021.37;106113;1259;62654;-85
2023/09/23 15:12:47;;;;;;;12.40;6.50;;;;;;;31.13;51.53;101020.73;106004;1259;61153;-85
2023/09/23 15:15:15;;;;;;;12.10;5.80;;;;;;;31.07;51.75;101021.48;107151;1257;61318;-86
2023/09/23 15:17:42;;;;;;;11.30;5.70;;;;;;;31.09;51.94;101023.88;106052;1257;64862;-85
2023/09/23 15:20:10;;;;;;;8.60;5.60;;;;;;;31.00;52.29;101028.83;106065;1258;61233;-85
2023/09/23 15:22:38;;;;;;;10.40;5.80;;;;;;;30.89;52.77;101031.42;106065;1258;62917;-85
2023/09/23 15:25:09;;;;;;;12.30;6.20;;;;;;;30.88;53.15;101031.02;106014;1261;61802;-85
2023/09/23 15:27:37;;;;;;;11.90;6.10;;;;;;;30.81;53.48;101026.09;107395;1257;61199;-86
2023/09/23 15:30:09;;;;;;;32.10;11.70;;;;;;;30.68;54.15;101022.46;106416;1261;64593;-86
2023/09/23 15:32:36;;;;;;;18.00;8.10;;;;;;;30.58;54.64;101019.34;106102;1257;61357;-86
2023/09/23 15:35:05;;;;;;;14.70;6.90;;;;;;;30.49;55.27;101018.95;106047;1259;64035;-85
2023/09/23 15:37:32;;;;;;;13.00;5.40;;;;;;;30.38;55.83;101022.23;106227;1259;61243;-86
2023/09/23 15:39:59;;;;;;;10.20;5.60;;;;;;;30.27;56.57;101020.42;105931;1257;61352;-85
2023/09/23 15:42:26;;;;;;;9.40;5.80;;;;;;;30.20;57.30;101025.23;106755;1259;64901;-86
2023/09/23 15:44:53;;;;;;;12.10;5.40;;;;;;;30.17;57.61;101028.63;106197;1262;61290;-85
2023/09/23 15:47:20;;;;;;;10.20;5.30;;;;;;;30.04;58.26;101029.33;106068;1262;63911;-85
2023/09/23 15:49:47;;;;;;;12.80;5.70;;;;;;;29.98;58.81;101029.61;105997;1257;61269;-85
2023/09/23 15:52:17;;;;;;;29.10;7.40;;;;;;;29.81;59.75;101028.77;105989;1256;61148;-85
2023/09/23 15:54:44;;;;;;;17.60;6.70;;;;;;;29.56;61.75;101028.02;106640;1257;65820;-85
2023/09/23 15:57:11;;;;;;;14.70;6.30;;;;;;;29.41;62.97;101027.54;106001;1257;61259;-85
2023/09/23 15:59:38;;;;;;;14.60;6.80;;;;;;;29.30;63.66;101029.73;105989;1259;63829;-85
2023/09/23 16:02:05;;;;;;;18.50;8.30;;;;;;;29.21;64.26;101027.84;106083;1258;61293;-85
2023/09/23 16:04:33;;;;;;;18.70;7.10;;;;;;;29.15;64.59;101030.05;106206;1258;61303;-85
2023/09/23 16:07:00;;;;;;;11.80;6.10;;;;;;;29.06;65.50;101032.64;106557;1260;65832;-85
2023/09/23 16:09:26;;;;;;;14.50;7.50;;;;;;;28.96;66.73;101032.31;106013;1259;61205;-86
2023/09/23 16:11:53;;;;;;;15.40;7.00;;;;;;;28.82;68.29;101029.16;105985;1258;63751;-85
2023/09/23 16:14:20;;;;;;;11.10;6.50;;;;;;;28.68;69.77;101027.69;106090;1257;61260;-85
2023/09/23 16:16:47;;;;;;;12.80;6.30;;;;;;;28.50;71.77;101030.17;106062;1258;61281;-85
2023/09/23 16:19:15;;;;;;;16.90;7.70;;;;;;;28.42;72.74;101026.16;106475;1260;65642;-85
2023/09/23 16:21:43;;;;;;;17.90;7.20;;;;;;;28.31;74.16;101027.42;105894;1262;169277;-85
2023/09/23 16:24:10;;;;;;;17.30;7.80;;;;;;;28.18;75.86;101031.46;106107;1258;63827;-85
2023/09/23 16:26:37;;;;;;;22.00;10.60;;;;;;;28.15;76.33;101034.56;105965;1262;61329;-85
2023/09/23 16:29:04;;;;;;;28.70;12.00;;;;;;;28.07;77.28;101038.82;106076;1259;61511;-85